Time,TemperatureF,DewpointF,PressureIn,WindDirection,WindDirectionDegrees,WindSpeedMPH,WindSpeedGustMPH,Humidity,HourlyPrecipIn,Conditions,Clouds,dailyrainin,SoftwareType,DateUTC
2013-04-04 00:05:00,42.9,31.6,29.96,SW,222,9.0,20.0,64,0.00,,,0.00,Wunderground v.1.15,2013-04-04 05:05:00,
2013-04-04 00:10:00,43.1,31.7,29.96,SW,223,9.0,9.0,64,0.00,,,0.00,Wunderground v.1.15,2013-04-04 05:10:00,
2013-04-04 00:15:00,42.8,31.8,29.97,SW,232,9.0,20.0,65,0.00,,,0.00,Wunderground v.1.15,2013-04-04 05:15:00,
2013-04-04 00:25:00,42.2,31.6,29.97,WSW,243,7.0,8.0,66,0.00,,,0.00,Wunderground v.1.15,2013-04-04 05:25:00,
2013-04-04 00:30:00,42.1,31.9,29.99,SW,233,7.0,16.0,67,0.00,,,0.00,Wunderground v.1.15,2013-04-04 05:30:00,
2013-04-04 00:35:00,41.6,31.8,29.99,WSW,246,7.0,16.0,68,0.00,,,0.00,Wunderground v.1.15,2013-04-04 05:35:00,
2013-04-04 00:45:00,41.3,31.9,29.99,WSW,246,7.0,14.0,69,0.00,,,0.00,Wunderground v.1.15,2013-04-04 05:45:00,
2013-04-04 00:50:00,41.1,32.4,29.99,SW,233,7.0,13.0,71,0.00,,,0.00,Wunderground v.1.15,2013-04-04 05:50:00,
2013-04-04 00:55:00,40.6,32.3,29.99,SW,226,7.0,13.0,72,0.00,,,0.00,Wunderground v.1.15,2013-04-04 05:55:00,
2013-04-04 01:00:00,40.2,32.2,29.99,SW,229,5.0,6.0,73,0.00,,,0.00,Wunderground v.1.15,2013-04-04 06:00:00,
2013-04-04 01:10:00,39.6,32.0,29.99,SW,222,4.0,15.0,74,0.00,,,0.00,Wunderground v.1.15,2013-04-04 06:10:00,
2013-04-04 01:15:00,39.5,32.2,29.98,SW,220,3.0,15.0,75,0.00,,,0.00,Wunderground v.1.15,2013-04-04 06:15:00,
2013-04-04 01:20:00,39.2,32.3,29.98,SSW,213,3.0,9.0,76,0.00,,,0.00,Wunderground v.1.15,2013-04-04 06:20:00,
2013-04-04 01:30:00,39.2,32.3,29.98,SW,215,4.0,9.0,76,0.00,,,0.00,Wunderground v.1.15,2013-04-04 06:30:00,
2013-04-04 01:35:00,39.2,32.3,29.98,SW,215,5.0,13.0,76,0.00,,,0.00,Wunderground v.1.15,2013-04-04 06:35:00,
2013-04-04 01:40:00,39.3,32.4,29.98,SW,217,5.0,13.0,76,0.00,,,0.00,Wunderground v.1.15,2013-04-04 06:40:00,
2013-04-04 01:45:00,39.5,32.6,29.97,SW,217,6.0,13.0,76,0.00,,,0.00,Wunderground v.1.15,2013-04-04 06:45:00,
2013-04-04 01:55:00,40.1,32.5,29.97,WSW,241,7.0,9.0,74,0.00,,,0.00,Wunderground v.1.15,2013-04-04 06:55:00,
2013-04-04 02:00:00,40.3,32.3,29.96,SW,233,7.0,9.0,73,0.00,,,0.00,Wunderground v.1.15,2013-04-04 07:00:00,
2013-04-04 02:05:00,40.5,32.5,29.96,WSW,239,7.0,11.0,73,0.00,,,0.00,Wunderground v.1.15,2013-04-04 07:05:00,
2013-04-04 02:10:00,40.6,31.9,29.96,WSW,251,7.0,11.0,71,0.00,,,0.00,Wunderground v.1.15,2013-04-04 07:10:00,
2013-04-04 02:15:00,41.1,32.4,29.97,WSW,257,8.0,11.0,71,0.00,,,0.00,Wunderground v.1.15,2013-04-04 07:15:00,
2013-04-04 02:20:00,40.9,32.2,29.97,West,261,8.0,8.0,71,0.00,,,0.00,Wunderground v.1.15,2013-04-04 07:20:00,
2013-04-04 02:25:00,40.2,32.6,29.97,WNW,289,6.0,11.0,74,0.00,,,0.00,Wunderground v.1.15,2013-04-04 07:25:00,
2013-04-04 02:30:00,39.6,32.7,29.97,West,274,5.0,11.0,76,0.00,,,0.00,Wunderground v.1.15,2013-04-04 07:30:00,
2013-04-04 02:40:00,38.6,32.6,29.97,West,267,3.0,3.0,79,0.00,,,0.00,Wunderground v.1.15,2013-04-04 07:40:00,
2013-04-04 02:50:00,38.0,33.0,29.98,West,278,2.0,7.0,82,0.00,,,0.00,Wunderground v.1.15,2013-04-04 07:50:00,
2013-04-04 02:55:00,37.8,33.1,29.98,West,277,2.0,7.0,83,0.00,,,0.00,Wunderground v.1.15,2013-04-04 07:55:00,
2013-04-04 03:00:00,37.5,32.8,29.98,West,277,1.0,7.0,83,0.00,,,0.00,Wunderground v.1.15,2013-04-04 08:00:00,
2013-04-04 03:05:00,37.3,32.9,29.98,West,261,1.0,7.0,84,0.00,,,0.00,Wunderground v.1.15,2013-04-04 08:05:00,
2013-04-04 03:10:00,37.0,32.9,29.98,West,260,2.0,6.0,85,0.00,,,0.00,Wunderground v.1.15,2013-04-04 08:10:00,
2013-04-04 03:15:00,36.9,32.8,29.97,West,267,3.0,6.0,85,0.00,,,0.00,Wunderground v.1.15,2013-04-04 08:15:00,
2013-04-04 03:25:00,36.5,32.7,29.97,West,275,2.0,4.0,86,0.00,,,0.00,Wunderground v.1.15,2013-04-04 08:25:00,
2013-04-04 03:30:00,36.2,32.7,29.98,WNW,288,2.0,7.0,87,0.00,,,0.00,Wunderground v.1.15,2013-04-04 08:30:00,
2013-04-04 03:40:00,35.6,32.1,29.98,WNW,282,1.0,6.0,87,0.00,,,0.00,Wunderground v.1.15,2013-04-04 08:40:00,
2013-04-04 03:45:00,35.5,32.3,29.99,West,281,1.0,6.0,88,0.00,,,0.00,Wunderground v.1.15,2013-04-04 08:45:00,
2013-04-04 03:55:00,35.2,32.0,29.99,WNW,289,1.0,6.0,88,0.00,,,0.00,Wunderground v.1.15,2013-04-04 08:55:00,
2013-04-04 04:05:00,34.9,32.0,29.98,West,281,1.0,4.0,89,0.00,,,0.00,Wunderground v.1.15,2013-04-04 09:05:00,
2013-04-04 04:15:00,34.6,31.7,29.99,WNW,292,1.0,4.0,89,0.00,,,0.00,Wunderground v.1.15,2013-04-04 09:15:00,
2013-04-04 04:20:00,34.4,31.5,29.99,WNW,288,1.0,1.0,89,0.00,,,0.00,Wunderground v.1.15,2013-04-04 09:20:00,
2013-04-04 04:25:00,34.3,31.4,29.99,NW,322,1.0,2.0,89,0.00,,,0.00,Wunderground v.1.15,2013-04-04 09:25:00,
2013-04-04 04:30:00,34.1,31.2,29.99,NW,315,1.0,1.0,89,0.00,,,0.00,Wunderground v.1.15,2013-04-04 09:30:00,
2013-04-04 04:40:00,33.8,31.2,29.99,NW,309,0.0,7.0,90,0.00,,,0.00,Wunderground v.1.15,2013-04-04 09:40:00,
2013-04-04 04:45:00,33.7,31.1,29.99,NW,309,0.0,7.0,90,0.00,,,0.00,Wunderground v.1.15,2013-04-04 09:45:00,
2013-04-04 04:50:00,33.5,30.9,29.99,NW,309,0.0,6.0,90,0.00,,,0.00,Wunderground v.1.15,2013-04-04 09:50:00,
2013-04-04 05:00:00,33.4,30.8,29.99,NW,309,0.0,6.0,90,0.00,,,0.00,Wunderground v.1.15,2013-04-04 10:00:00,
2013-04-04 05:05:00,33.2,30.6,29.99,NW,305,0.0,6.0,90,0.00,,,0.00,Wunderground v.1.15,2013-04-04 10:05:00,
2013-04-04 05:10:00,33.2,30.6,29.99,NNW,333,1.0,1.0,90,0.00,,,0.00,Wunderground v.1.15,2013-04-04 10:10:00,
2013-04-04 05:15:00,33.2,30.6,29.99,NW,305,1.0,1.0,90,0.00,,,0.00,Wunderground v.1.15,2013-04-04 10:15:00,
2013-04-04 05:20:00,33.4,30.5,29.99,NW,315,1.0,7.0,89,0.00,,,0.00,Wunderground v.1.15,2013-04-04 10:20:00,
2013-04-04 05:25:00,33.4,30.2,29.99,NW,325,2.0,7.0,88,0.00,,,0.00,Wunderground v.1.15,2013-04-04 10:25:00,
2013-04-04 05:35:00,33.4,29.9,29.99,NNW,342,3.0,8.0,87,0.00,,,0.00,Wunderground v.1.15,2013-04-04 10:35:00,
2013-04-04 05:40:00,33.4,29.9,29.99,NW,320,3.0,3.0,87,0.00,,,0.00,Wunderground v.1.15,2013-04-04 10:40:00,
2013-04-04 05:45:00,33.2,29.8,30.01,NW,308,2.0,8.0,87,0.00,,,0.00,Wunderground v.1.15,2013-04-04 10:45:00,
2013-04-04 05:55:00,33.2,29.5,30.01,NNW,344,2.0,9.0,86,0.00,,,0.00,Wunderground v.1.15,2013-04-04 10:55:00,
2013-04-04 06:00:00,33.2,28.9,30.01,NNW,337,3.0,9.0,84,0.00,,,0.00,Wunderground v.1.15,2013-04-04 11:00:00,
2013-04-04 06:05:00,33.4,28.8,30.01,NNW,339,6.0,10.0,83,0.00,,,0.00,Wunderground v.1.15,2013-04-04 11:05:00,
2013-04-04 06:10:00,33.5,28.3,30.01,NW,312,7.0,10.0,81,0.00,,,0.00,Wunderground v.1.15,2013-04-04 11:10:00,
2013-04-04 06:20:00,33.5,27.7,30.02,North,349,6.0,14.0,79,0.00,,,0.00,Wunderground v.1.15,2013-04-04 11:20:00,
2013-04-04 06:25:00,33.5,27.7,30.02,NNW,343,6.0,14.0,79,0.00,,,0.00,Wunderground v.1.15,2013-04-04 11:25:00,
2013-04-04 06:30:00,33.5,27.7,30.02,NNW,340,6.0,14.0,79,0.00,,,0.00,Wunderground v.1.15,2013-04-04 11:30:00,
2013-04-04 06:35:00,33.4,27.3,30.02,NNW,339,5.0,14.0,78,0.00,,,0.00,Wunderground v.1.15,2013-04-04 11:35:00,
2013-04-04 06:40:00,33.4,27.3,30.02,NNW,333,5.0,11.0,78,0.00,,,0.00,Wunderground v.1.15,2013-04-04 11:40:00,
2013-04-04 06:45:00,33.2,27.1,30.02,NNW,330,4.0,11.0,78,0.00,,,0.00,Wunderground v.1.15,2013-04-04 11:45:00,
2013-04-04 06:55:00,33.1,26.7,30.02,NNW,343,4.0,11.0,77,0.00,,,0.00,Wunderground v.1.15,2013-04-04 11:55:00,
2013-04-04 07:05:00,32.9,26.5,30.03,NW,326,2.0,10.0,77,0.00,,,0.00,Wunderground v.1.15,2013-04-04 12:05:00,
2013-04-04 07:10:00,32.8,26.4,30.03,NW,326,1.0,1.0,77,0.00,,,0.00,Wunderground v.1.15,2013-04-04 12:10:00,
2013-04-04 07:20:00,32.2,26.4,30.03,NW,326,0.0,4.0,79,0.00,,,0.00,Wunderground v.1.15,2013-04-04 12:20:00,
2013-04-04 07:25:00,31.9,26.4,30.03,NW,326,0.0,4.0,80,0.00,,,0.00,Wunderground v.1.15,2013-04-04 12:25:00,
2013-04-04 07:30:00,31.8,26.6,30.04,NW,326,0.0,4.0,81,0.00,,,0.00,Wunderground v.1.15,2013-04-04 12:30:00,
2013-04-04 07:35:00,31.8,26.9,30.04,NW,325,0.0,4.0,82,0.00,,,0.00,Wunderground v.1.15,2013-04-04 12:35:00,
2013-04-04 07:40:00,31.8,27.2,30.04,NW,325,0.0,0.0,83,0.00,,,0.00,Wunderground v.1.15,2013-04-04 12:40:00,
2013-04-04 07:50:00,32.1,27.2,30.05,NNW,335,3.0,6.0,82,0.00,,,0.00,Wunderground v.1.15,2013-04-04 12:50:00,
2013-04-04 07:55:00,32.4,27.2,30.05,NNW,347,5.0,6.0,81,0.00,,,0.00,Wunderground v.1.15,2013-04-04 12:55:00,
2013-04-04 08:00:00,32.7,27.2,30.06,NNW,339,6.0,7.0,80,0.00,,,0.00,Wunderground v.1.15,2013-04-04 13:00:00,
2013-04-04 08:10:00,33.4,27.0,30.06,NNW,343,7.0,11.0,77,0.00,,,0.00,Wunderground v.1.15,2013-04-04 13:10:00,
2013-04-04 08:15:00,33.7,27.3,30.06,North,359,6.0,11.0,77,0.00,,,0.00,Wunderground v.1.15,2013-04-04 13:15:00,
2013-04-04 08:20:00,33.8,27.0,30.06,NW,311,5.0,5.0,76,0.00,,,0.00,Wunderground v.1.15,2013-04-04 13:20:00,
2013-04-04 08:30:00,34.0,26.9,30.06,NNW,346,5.0,5.0,75,0.00,,,0.00,Wunderground v.1.15,2013-04-04 13:30:00,
2013-04-04 08:35:00,34.3,27.2,30.06,NNW,339,4.0,9.0,75,0.00,,,0.00,Wunderground v.1.15,2013-04-04 13:35:00,
2013-04-04 08:40:00,34.6,27.2,30.06,NNW,329,3.0,9.0,74,0.00,,,0.00,Wunderground v.1.15,2013-04-04 13:40:00,
2013-04-04 08:45:00,34.6,27.2,30.06,NW,319,4.0,9.0,74,0.00,,,0.00,Wunderground v.1.15,2013-04-04 13:45:00,
2013-04-04 08:55:00,34.3,26.9,30.06,NNW,337,7.0,10.0,74,0.00,,,0.00,Wunderground v.1.15,2013-04-04 13:55:00,
2013-04-04 09:00:00,34.3,26.9,30.07,NNW,347,9.0,9.0,74,0.00,,,0.00,Wunderground v.1.15,2013-04-04 14:00:00,
2013-04-04 09:05:00,34.3,27.2,30.07,NNW,328,9.0,11.0,75,0.00,,,0.00,Wunderground v.1.15,2013-04-04 14:05:00,
2013-04-04 09:15:00,34.0,27.2,30.07,North,352,11.0,14.0,76,0.00,,,0.00,Wunderground v.1.15,2013-04-04 14:15:00,
2013-04-04 09:25:00,34.1,27.6,30.07,NW,306,9.0,13.0,77,0.00,,,0.00,Wunderground v.1.15,2013-04-04 14:25:00,
2013-04-04 09:30:00,34.3,27.5,30.07,NNW,337,8.0,17.0,76,0.00,,,0.00,Wunderground v.1.15,2013-04-04 14:30:00,
2013-04-04 09:35:00,34.4,27.6,30.07,NNW,343,9.0,17.0,76,0.00,,,0.00,Wunderground v.1.15,2013-04-04 14:35:00,
2013-04-04 09:40:00,34.7,27.6,30.07,NNW,336,9.0,17.0,75,0.00,,,0.00,Wunderground v.1.15,2013-04-04 14:40:00,
2013-04-04 09:45:00,35.0,27.9,30.08,North,0,8.0,17.0,75,0.00,,,0.00,Wunderground v.1.15,2013-04-04 14:45:00,
2013-04-04 09:55:00,35.2,27.4,30.08,NNW,336,8.0,14.0,73,0.00,,,0.00,Wunderground v.1.15,2013-04-04 14:55:00,
2013-04-04 10:00:00,35.3,27.8,30.08,North,0,9.0,9.0,74,0.00,,,0.00,Wunderground v.1.15,2013-04-04 15:00:00,
2013-04-04 10:10:00,36.0,27.8,30.08,North,357,7.0,14.0,72,0.00,,,0.00,Wunderground v.1.15,2013-04-04 15:10:00,
2013-04-04 10:15:00,36.2,27.7,30.08,North,0,8.0,14.0,71,0.00,,,0.00,Wunderground v.1.15,2013-04-04 15:15:00,
2013-04-04 10:20:00,36.5,27.6,30.08,NNW,339,9.0,13.0,70,0.00,,,0.00,Wunderground v.1.15,2013-04-04 15:20:00,
2013-04-04 10:25:00,36.8,27.9,30.08,North,353,9.0,13.0,70,0.00,,,0.00,Wunderground v.1.15,2013-04-04 15:25:00,
2013-04-04 10:35:00,37.0,28.1,30.08,NNW,347,9.0,16.0,70,0.00,,,0.00,Wunderground v.1.15,2013-04-04 15:35:00,
2013-04-04 10:40:00,37.2,28.3,30.08,North,359,9.0,9.0,70,0.00,,,0.00,Wunderground v.1.15,2013-04-04 15:40:00,
2013-04-04 10:45:00,37.2,28.3,30.09,North,350,9.0,10.0,70,0.00,,,0.00,Wunderground v.1.15,2013-04-04 15:45:00,
2013-04-04 10:55:00,37.3,28.1,30.09,North,4,10.0,14.0,69,0.00,,,0.00,Wunderground v.1.15,2013-04-04 15:55:00,
2013-04-04 11:00:00,37.6,28.0,30.09,NNW,339,10.0,14.0,68,0.00,,,0.00,Wunderground v.1.15,2013-04-04 16:00:00,
2013-04-04 11:05:00,37.6,27.6,30.09,North,350,11.0,16.0,67,0.00,,,0.00,Wunderground v.1.15,2013-04-04 16:05:00,
2013-04-04 11:10:00,37.3,27.3,30.09,North,349,11.0,16.0,67,0.00,,,0.00,Wunderground v.1.15,2013-04-04 16:10:00,
2013-04-04 11:20:00,37.9,27.9,30.10,NNW,336,10.0,16.0,67,0.00,,,0.00,Wunderground v.1.15,2013-04-04 16:20:00,
2013-04-04 11:25:00,37.8,27.8,30.10,NNW,333,10.0,16.0,67,0.00,,,0.00,Wunderground v.1.15,2013-04-04 16:25:00,
2013-04-04 11:35:00,38.3,27.9,30.10,North,354,9.0,11.0,66,0.00,,,0.00,Wunderground v.1.15,2013-04-04 16:35:00,
2013-04-04 11:40:00,38.6,27.8,30.10,NNW,329,9.0,17.0,65,0.00,,,0.00,Wunderground v.1.15,2013-04-04 16:40:00,
2013-04-04 11:45:00,38.8,28.0,30.10,NNW,329,10.0,17.0,65,0.00,,,0.00,Wunderground v.1.15,2013-04-04 16:45:00,
2013-04-04 11:55:00,39.1,28.3,30.10,North,357,9.0,15.0,65,0.00,,,0.00,Wunderground v.1.15,2013-04-04 16:55:00,
2013-04-04 12:05:00,38.9,28.5,30.11,North,357,11.0,15.0,66,0.00,,,0.00,Wunderground v.1.15,2013-04-04 17:05:00,
2013-04-04 12:10:00,39.1,28.3,30.11,NNW,347,10.0,10.0,65,0.00,,,0.00,Wunderground v.1.15,2013-04-04 17:10:00,
2013-04-04 12:15:00,39.1,27.9,30.12,North,3,9.0,13.0,64,0.00,,,0.00,Wunderground v.1.15,2013-04-04 17:15:00,
2013-04-04 12:20:00,38.9,28.1,30.12,NNW,333,10.0,15.0,65,0.00,,,0.00,Wunderground v.1.15,2013-04-04 17:20:00,
2013-04-04 12:25:00,39.1,27.9,30.12,North,356,11.0,15.0,64,0.00,,,0.00,Wunderground v.1.15,2013-04-04 17:25:00,
2013-04-04 12:30:00,39.3,27.7,30.12,North,0,10.0,15.0,63,0.00,,,0.00,Wunderground v.1.15,2013-04-04 17:30:00,
2013-04-04 12:40:00,39.5,27.5,30.12,North,359,9.0,17.0,62,0.00,,,0.00,Wunderground v.1.15,2013-04-04 17:40:00,
2013-04-04 12:50:00,39.2,27.3,30.11,North,353,10.0,15.0,62,0.00,,,0.00,Wunderground v.1.15,2013-04-04 17:50:00,
2013-04-04 12:55:00,39.6,28.0,30.11,North,1,10.0,15.0,63,0.00,,,0.00,Wunderground v.1.15,2013-04-04 17:55:00,
2013-04-04 13:00:00,39.8,26.6,30.12,North,0,10.0,15.0,59,0.00,,,0.00,Wunderground v.1.15,2013-04-04 18:00:00,
2013-04-04 13:10:00,39.8,27.0,30.12,North,0,10.0,16.0,60,0.00,,,0.00,Wunderground v.1.15,2013-04-04 18:10:00,
2013-04-04 13:15:00,40.2,28.2,30.12,NNW,337,10.0,16.0,62,0.00,,,0.00,Wunderground v.1.15,2013-04-04 18:15:00,
2013-04-04 13:20:00,40.3,28.3,30.12,WNW,282,9.0,9.0,62,0.00,,,0.00,Wunderground v.1.15,2013-04-04 18:20:00,
2013-04-04 13:25:00,40.3,27.9,30.12,North,0,9.0,13.0,61,0.00,,,0.00,Wunderground v.1.15,2013-04-04 18:25:00,
2013-04-04 13:35:00,40.5,27.7,30.12,NNW,330,9.0,16.0,60,0.00,,,0.00,Wunderground v.1.15,2013-04-04 18:35:00,
2013-04-04 13:40:00,40.5,26.9,30.12,North,357,9.0,16.0,58,0.00,,,0.00,Wunderground v.1.15,2013-04-04 18:40:00,
2013-04-04 13:45:00,40.5,26.0,30.12,North,354,9.0,16.0,56,0.00,,,0.00,Wunderground v.1.15,2013-04-04 18:45:00,
2013-04-04 13:55:00,40.5,27.7,30.12,NW,320,12.0,16.0,60,0.00,,,0.00,Wunderground v.1.15,2013-04-04 18:55:00,
2013-04-04 14:00:00,40.8,27.6,30.12,NNW,342,11.0,11.0,59,0.00,,,0.00,Wunderground v.1.15,2013-04-04 19:00:00,
2013-04-04 14:05:00,40.5,26.4,30.12,NNW,343,10.0,17.0,57,0.00,,,0.00,Wunderground v.1.15,2013-04-04 19:05:00,
2013-04-04 14:10:00,40.3,26.3,30.12,NNW,344,11.0,11.0,57,0.00,,,0.00,Wunderground v.1.15,2013-04-04 19:10:00,
2013-04-04 14:15:00,40.3,26.7,30.12,NNW,346,11.0,17.0,58,0.00,,,0.00,Wunderground v.1.15,2013-04-04 19:15:00,
2013-04-04 14:25:00,40.5,25.6,30.12,NNW,342,11.0,16.0,55,0.00,,,0.00,Wunderground v.1.15,2013-04-04 19:25:00,
2013-04-04 14:30:00,40.2,25.7,30.12,North,359,11.0,11.0,56,0.00,,,0.00,Wunderground v.1.15,2013-04-04 19:30:00,
2013-04-04 14:35:00,40.5,26.0,30.12,NNW,339,11.0,21.0,56,0.00,,,0.00,Wunderground v.1.15,2013-04-04 19:35:00,
2013-04-04 14:40:00,40.3,25.0,30.12,North,1,10.0,10.0,54,0.00,,,0.00,Wunderground v.1.15,2013-04-04 19:40:00,
2013-04-04 14:45:00,40.6,24.8,30.12,North,4,11.0,13.0,53,0.00,,,0.00,Wunderground v.1.15,2013-04-04 19:45:00,
2013-04-04 14:55:00,40.6,26.1,30.12,North,359,12.0,20.0,56,0.00,,,0.00,Wunderground v.1.15,2013-04-04 19:55:00,
2013-04-04 15:00:00,40.2,25.7,30.12,North,354,11.0,11.0,56,0.00,,,0.00,Wunderground v.1.15,2013-04-04 20:00:00,
2013-04-04 15:05:00,40.2,26.6,30.12,North,0,11.0,20.0,58,0.00,,,0.00,Wunderground v.1.15,2013-04-04 20:05:00,
2013-04-04 15:10:00,40.1,26.9,30.12,North,0,11.0,11.0,59,0.00,,,0.00,Wunderground v.1.15,2013-04-04 20:10:00,
2013-04-04 15:15:00,39.9,25.9,30.13,North,353,11.0,20.0,57,0.00,,,0.00,Wunderground v.1.15,2013-04-04 20:15:00,
2013-04-04 15:25:00,39.6,25.6,30.13,North,349,12.0,20.0,57,0.00,,,0.00,Wunderground v.1.15,2013-04-04 20:25:00,
2013-04-04 15:30:00,39.2,24.4,30.13,NNW,347,13.0,20.0,55,0.00,,,0.00,Wunderground v.1.15,2013-04-04 20:30:00,
2013-04-04 15:35:00,38.8,24.4,30.13,North,0,13.0,21.0,56,0.00,,,0.00,Wunderground v.1.15,2013-04-04 20:35:00,
2013-04-04 15:40:00,38.5,24.1,30.13,North,353,12.0,21.0,56,0.00,,,0.00,Wunderground v.1.15,2013-04-04 20:40:00,
2013-04-04 15:45:00,38.2,23.9,30.13,North,0,13.0,21.0,56,0.00,,,0.00,Wunderground v.1.15,2013-04-04 20:45:00,
2013-04-04 15:50:00,38.6,24.7,30.13,NNW,343,13.0,13.0,57,0.00,,,0.00,Wunderground v.1.15,2013-04-04 20:50:00,
2013-04-04 15:55:00,38.5,24.1,30.13,North,353,12.0,21.0,56,0.00,,,0.00,Wunderground v.1.15,2013-04-04 20:55:00,
2013-04-04 16:00:00,38.3,24.4,30.13,NNW,335,13.0,13.0,57,0.00,,,0.00,Wunderground v.1.15,2013-04-04 21:00:00,
2013-04-04 16:10:00,38.2,24.3,30.13,North,359,11.0,11.0,57,0.00,,,0.00,Wunderground v.1.15,2013-04-04 21:10:00,
2013-04-04 16:15:00,38.0,24.1,30.13,NW,309,12.0,13.0,57,0.00,,,0.00,Wunderground v.1.15,2013-04-04 21:15:00,
2013-04-04 16:20:00,37.9,24.4,30.13,North,0,13.0,18.0,58,0.00,,,0.00,Wunderground v.1.15,2013-04-04 21:20:00,
2013-04-04 16:25:00,38.2,24.3,30.13,NNW,343,12.0,18.0,57,0.00,,,0.00,Wunderground v.1.15,2013-04-04 21:25:00,
2013-04-04 16:30:00,38.2,24.7,30.13,NNW,332,11.0,18.0,58,0.00,,,0.00,Wunderground v.1.15,2013-04-04 21:30:00,
2013-04-04 16:35:00,38.0,24.5,30.13,North,356,11.0,18.0,58,0.00,,,0.00,Wunderground v.1.15,2013-04-04 21:35:00,
2013-04-04 16:40:00,38.0,24.5,30.13,NW,325,11.0,11.0,58,0.00,,,0.00,Wunderground v.1.15,2013-04-04 21:40:00,
2013-04-04 16:45:00,38.5,24.6,30.13,North,1,10.0,18.0,57,0.00,,,0.00,Wunderground v.1.15,2013-04-04 21:45:00,
2013-04-04 16:55:00,38.3,24.8,30.13,North,352,10.0,17.0,58,0.00,,,0.00,Wunderground v.1.15,2013-04-04 21:55:00,
2013-04-04 17:00:00,38.6,24.7,30.13,NNW,343,9.0,17.0,57,0.00,,,0.00,Wunderground v.1.15,2013-04-04 22:00:00,
2013-04-04 17:10:00,37.8,23.9,30.13,North,6,12.0,17.0,57,0.00,,,0.00,Wunderground v.1.15,2013-04-04 22:10:00,
2013-04-04 17:15:00,37.5,23.2,30.14,NNW,346,12.0,17.0,56,0.00,,,0.00,Wunderground v.1.15,2013-04-04 22:15:00,
2013-04-04 17:20:00,37.3,23.0,30.14,NW,326,12.0,12.0,56,0.00,,,0.00,Wunderground v.1.15,2013-04-04 22:20:00,
2013-04-04 17:25:00,37.2,22.9,30.14,North,359,12.0,17.0,56,0.00,,,0.00,Wunderground v.1.15,2013-04-04 22:25:00,
2013-04-04 17:35:00,37.5,23.2,30.14,North,0,12.0,21.0,56,0.00,,,0.00,Wunderground v.1.15,2013-04-04 22:35:00,
2013-04-04 17:40:00,37.6,23.3,30.14,North,357,11.0,11.0,56,0.00,,,0.00,Wunderground v.1.15,2013-04-04 22:40:00,
2013-04-04 17:50:00,37.2,22.5,30.14,North,6,12.0,12.0,55,0.00,,,0.00,Wunderground v.1.15,2013-04-04 22:50:00,
2013-04-04 17:55:00,37.2,22.1,30.14,NNW,343,12.0,17.0,54,0.00,,,0.00,Wunderground v.1.15,2013-04-04 22:55:00,
2013-04-04 18:00:00,37.3,23.4,30.14,North,0,10.0,10.0,57,0.00,,,0.00,Wunderground v.1.15,2013-04-04 23:00:00,
2013-04-04 18:10:00,37.0,21.9,30.14,North,354,11.0,16.0,54,0.00,,,0.00,Wunderground v.1.15,2013-04-04 23:10:00,
2013-04-04 18:15:00,36.9,21.8,30.14,North,7,11.0,16.0,54,0.00,,,0.00,Wunderground v.1.15,2013-04-04 23:15:00,
2013-04-04 18:20:00,36.9,22.7,30.14,NNW,346,11.0,11.0,56,0.00,,,0.00,Wunderground v.1.15,2013-04-04 23:20:00,
2013-04-04 18:30:00,36.8,23.0,30.14,NNW,340,10.0,10.0,57,0.00,,,0.00,Wunderground v.1.15,2013-04-04 23:30:00,
2013-04-04 18:35:00,36.3,22.5,30.14,NNW,335,10.0,14.0,57,0.00,,,0.00,Wunderground v.1.15,2013-04-04 23:35:00,
2013-04-04 18:40:00,36.0,22.2,30.14,NW,326,10.0,17.0,57,0.00,,,0.00,Wunderground v.1.15,2013-04-04 23:40:00,
2013-04-04 18:45:00,35.8,22.0,30.15,North,357,10.0,17.0,57,0.00,,,0.00,Wunderground v.1.15,2013-04-04 23:45:00,
2013-04-04 18:55:00,35.3,21.6,30.15,NNW,343,11.0,16.0,57,0.00,,,0.00,Wunderground v.1.15,2013-04-04 23:55:00,
2013-04-04 19:00:00,35.2,21.1,30.15,North,0,11.0,16.0,56,0.00,,,0.00,Wunderground v.1.15,2013-04-05 00:00:00,
2013-04-04 19:05:00,35.0,20.9,30.15,North,354,11.0,18.0,56,0.00,,,0.00,Wunderground v.1.15,2013-04-05 00:05:00,
2013-04-04 19:15:00,34.6,20.5,30.15,North,357,10.0,18.0,56,0.00,,,0.00,Wunderground v.1.15,2013-04-05 00:15:00,
2013-04-04 19:20:00,34.4,20.7,30.15,North,1,10.0,10.0,57,0.00,,,0.00,Wunderground v.1.15,2013-04-05 00:20:00,
2013-04-04 19:25:00,34.1,20.4,30.15,NNW,339,9.0,16.0,57,0.00,,,0.00,Wunderground v.1.15,2013-04-05 00:25:00,
2013-04-04 19:35:00,33.8,20.6,30.15,North,353,9.0,16.0,58,0.00,,,0.00,Wunderground v.1.15,2013-04-05 00:35:00,
2013-04-04 19:40:00,33.7,20.9,30.15,North,359,9.0,9.0,59,0.00,,,0.00,Wunderground v.1.15,2013-04-05 00:40:00,
2013-04-04 19:45:00,33.5,21.1,30.15,North,0,8.0,14.0,60,0.00,,,0.00,Wunderground v.1.15,2013-04-05 00:45:00,
2013-04-04 19:55:00,33.1,21.1,30.15,North,353,7.0,14.0,61,0.00,,,0.00,Wunderground v.1.15,2013-04-05 00:55:00,
2013-04-04 20:00:00,32.9,21.3,30.15,North,357,8.0,8.0,62,0.00,,,0.00,Wunderground v.1.15,2013-04-05 01:00:00,
2013-04-04 20:05:00,32.7,21.5,30.15,North,0,8.0,14.0,63,0.00,,,0.00,Wunderground v.1.15,2013-04-05 01:05:00,
2013-04-04 20:15:00,32.4,21.9,30.15,North,356,6.0,14.0,65,0.00,,,0.00,Wunderground v.1.15,2013-04-05 01:15:00,
2013-04-04 20:20:00,32.1,22.0,30.15,NNW,333,6.0,11.0,66,0.00,,,0.00,Wunderground v.1.15,2013-04-05 01:20:00,
2013-04-04 20:25:00,31.9,22.2,30.15,NNW,337,6.0,11.0,67,0.00,,,0.00,Wunderground v.1.15,2013-04-05 01:25:00,
2013-04-04 20:35:00,31.5,22.5,30.16,NNW,332,4.0,6.0,69,0.00,,,0.00,Wunderground v.1.15,2013-04-05 01:35:00,
2013-04-04 20:40:00,31.3,22.6,30.16,North,349,4.0,4.0,70,0.00,,,0.00,Wunderground v.1.15,2013-04-05 01:40:00,
2013-04-04 20:45:00,31.2,22.5,30.17,North,357,5.0,5.0,70,0.00,,,0.00,Wunderground v.1.15,2013-04-05 01:45:00,
2013-04-04 20:55:00,30.9,22.6,30.17,North,350,6.0,8.0,71,0.00,,,0.00,Wunderground v.1.15,2013-04-05 01:55:00,
2013-04-04 21:00:00,30.9,22.6,30.17,North,353,7.0,7.0,71,0.00,,,0.00,Wunderground v.1.15,2013-04-05 02:00:00,
2013-04-04 21:05:00,30.6,22.6,30.17,North,357,5.0,10.0,72,0.00,,,0.00,Wunderground v.1.15,2013-04-05 02:05:00,
2013-04-04 21:10:00,30.4,22.4,30.17,North,0,4.0,4.0,72,0.00,,,0.00,Wunderground v.1.15,2013-04-05 02:10:00,
2013-04-04 21:20:00,30.1,22.5,30.17,North,6,3.0,3.0,73,0.00,,,0.00,Wunderground v.1.15,2013-04-05 02:20:00,
2013-04-04 21:25:00,30.0,22.4,30.17,North,359,4.0,4.0,73,0.00,,,0.00,Wunderground v.1.15,2013-04-05 02:25:00,
2013-04-04 21:30:00,29.8,22.5,30.17,North,357,4.0,8.0,74,0.00,,,0.00,Wunderground v.1.15,2013-04-05 02:30:00,
2013-04-04 21:35:00,29.8,22.5,30.17,NNW,346,5.0,9.0,74,0.00,,,0.00,Wunderground v.1.15,2013-04-05 02:35:00,
2013-04-04 21:40:00,29.7,22.4,30.17,North,0,6.0,9.0,74,0.00,,,0.00,Wunderground v.1.15,2013-04-05 02:40:00,
2013-04-04 21:45:00,29.7,22.4,30.18,North,0,7.0,9.0,74,0.00,,,0.00,Wunderground v.1.15,2013-04-05 02:45:00,
2013-04-04 21:55:00,29.4,22.1,30.18,North,353,6.0,11.0,74,0.00,,,0.00,Wunderground v.1.15,2013-04-05 02:55:00,
2013-04-04 22:00:00,29.4,22.1,30.19,NNW,336,6.0,11.0,74,0.00,,,0.00,Wunderground v.1.15,2013-04-05 03:00:00,
2013-04-04 22:10:00,29.1,22.2,30.19,North,353,7.0,7.0,75,0.00,,,0.00,Wunderground v.1.15,2013-04-05 03:10:00,
2013-04-04 22:15:00,29.0,22.1,30.18,North,0,7.0,10.0,75,0.00,,,0.00,Wunderground v.1.15,2013-04-05 03:15:00,
2013-04-04 22:20:00,29.0,22.1,30.18,North,0,8.0,8.0,75,0.00,,,0.00,Wunderground v.1.15,2013-04-05 03:20:00,
2013-04-04 22:25:00,28.8,21.9,30.18,North,354,8.0,9.0,75,0.00,,,0.00,Wunderground v.1.15,2013-04-05 03:25:00,
2013-04-04 22:30:00,28.8,21.9,30.18,NNW,343,8.0,8.0,75,0.00,,,0.00,Wunderground v.1.15,2013-04-05 03:30:00,
2013-04-04 22:35:00,28.7,21.8,30.18,North,0,8.0,11.0,75,0.00,,,0.00,Wunderground v.1.15,2013-04-05 03:35:00,
2013-04-04 22:45:00,28.4,21.8,30.18,North,356,8.0,11.0,76,0.00,,,0.00,Wunderground v.1.15,2013-04-05 03:45:00,
2013-04-04 22:55:00,28.2,21.6,30.18,North,0,8.0,13.0,76,0.00,,,0.00,Wunderground v.1.15,2013-04-05 03:55:00,
2013-04-04 23:00:00,28.1,21.5,30.19,North,352,9.0,9.0,76,0.00,,,0.00,Wunderground v.1.15,2013-04-05 04:00:00,
2013-04-04 23:05:00,27.9,21.3,30.19,North,0,9.0,14.0,76,0.00,,,0.00,Wunderground v.1.15,2013-04-05 04:05:00,
2013-04-04 23:10:00,27.9,21.3,30.19,North,0,8.0,8.0,76,0.00,,,0.00,Wunderground v.1.15,2013-04-05 04:10:00,
2013-04-04 23:15:00,27.8,21.2,30.19,NNW,347,7.0,9.0,76,0.00,,,0.00,Wunderground v.1.15,2013-04-05 04:15:00,
2013-04-04 23:20:00,27.8,21.2,30.19,North,357,7.0,7.0,76,0.00,,,0.00,Wunderground v.1.15,2013-04-05 04:20:00,
2013-04-04 23:25:00,27.6,21.0,30.19,North,0,5.0,13.0,76,0.00,,,0.00,Wunderground v.1.15,2013-04-05 04:25:00,
2013-04-04 23:30:00,27.6,21.0,30.19,North,0,5.0,5.0,76,0.00,,,0.00,Wunderground v.1.15,2013-04-05 04:30:00,
2013-04-04 23:35:00,27.5,21.2,30.19,North,3,6.0,7.0,77,0.00,,,0.00,Wunderground v.1.15,2013-04-05 04:35:00,
2013-04-04 23:40:00,27.3,21.0,30.19,North,0,6.0,6.0,77,0.00,,,0.00,Wunderground v.1.15,2013-04-05 04:40:00,
2013-04-04 23:45:00,27.2,20.9,30.19,NNE,14,6.0,7.0,77,0.00,,,0.00,Wunderground v.1.15,2013-04-05 04:45:00,
2013-04-04 23:55:00,27.0,20.7,30.19,North,354,7.0,11.0,77,0.00,,,0.00,Wunderground v.1.15,2013-04-05 04:55:00,